Time;durP1;ratioP1;P1;durP2;ratioP2;P2;SDS_P1;SDS_P2;PMS_P1;PMS_P2;Temp;Humidity;BMP_temperature;BMP_pressure;BME280_temperature;BME280_humidity;BME280_pressure;Samples;Min_cycle;Max_cycle;Signal;HPM_P1;HPM_P2
2021/08/16 00:01:04;;;;;;;20.13;10.43;;;16.90;99.90;;;;;;5065821;28;20067;-61
2021/08/16 00:03:31;;;;;;;18.10;10.50;;;16.90;99.90;;;;;;5070904;28;20111;-61
2021/08/16 00:05:57;;;;;;;15.10;9.38;;;16.80;99.90;;;;;;5067344;28;20056;-61
2021/08/16 00:08:23;;;;;;;18.25;10.85;;;16.90;99.90;;;;;;5066490;28;20068;-61
2021/08/16 00:10:50;;;;;;;18.15;10.60;;;17.00;99.90;;;;;;5067217;28;20599;-61
2021/08/16 00:13:16;;;;;;;21.30;9.70;;;17.00;99.90;;;;;;5066062;28;20091;-61
2021/08/16 00:15:42;;;;;;;20.98;9.70;;;17.10;99.90;;;;;;5065801;28;20049;-61
2021/08/16 00:18:08;;;;;;;18.60;9.38;;;17.10;99.90;;;;;;5064753;28;20098;-61
2021/08/16 00:20:34;;;;;;;19.88;9.00;;;17.10;99.90;;;;;;5064124;28;20127;-61
2021/08/16 00:23:04;;;;;;;15.43;8.45;;;17.20;99.90;;;;;;5065808;28;20084;-60
2021/08/16 00:25:30;;;;;;;20.00;8.82;;;17.20;99.90;;;;;;5047239;28;20057;-61
2021/08/16 00:27:58;;;;;;;21.02;8.13;;;17.20;99.90;;;;;;5062945;28;20056;-61
2021/08/16 00:30:24;;;;;;;17.83;8.35;;;17.20;99.90;;;;;;5033067;28;20562;-61
2021/08/16 00:32:51;;;;;;;17.17;7.35;;;17.20;99.90;;;;;;5073977;28;20501;-61
2021/08/16 00:35:20;;;;;;;20.90;7.00;;;17.20;99.90;;;;;;5058642;28;20107;-61
2021/08/16 00:37:46;;;;;;;19.23;6.68;;;17.20;99.90;;;;;;5061800;28;20044;-61
2021/08/16 00:40:14;;;;;;;17.77;6.60;;;17.10;99.90;;;;;;5064483;28;20062;-61
2021/08/16 00:42:41;;;;;;;14.13;6.22;;;17.10;99.90;;;;;;5066385;28;20049;-60
2021/08/16 00:45:07;;;;;;;18.77;7.03;;;17.10;99.90;;;;;;5072546;28;20153;-61
2021/08/16 00:47:43;;;;;;;15.90;6.38;;;17.10;99.90;;;;;;5070130;28;20052;-61
2021/08/16 00:50:11;;;;;;;17.15;6.53;;;17.10;99.90;;;;;;5046567;28;20052;-61
2021/08/16 00:52:42;;;;;;;20.15;6.25;;;17.10;99.90;;;;;;5068071;28;20462;-61
2021/08/16 00:55:13;;;;;;;23.63;6.72;;;17.10;99.90;;;;;;5070176;28;20429;-61
2021/08/16 00:57:40;;;;;;;;;;;17.10;99.90;;;;;;5071884;28;20052;-61
2021/08/16 01:00:12;;;;;;;19.95;6.65;;;17.10;99.90;;;;;;5061579;28;19924;-62
2021/08/16 01:02:40;;;;;;;23.17;6.25;;;17.00;99.90;;;;;;5068049;28;20040;-61
2021/08/16 01:05:14;;;;;;;22.00;6.75;;;17.00;99.90;;;;;;5070172;28;20053;-60
2021/08/16 01:07:49;;;;;;;20.13;6.03;;;17.00;99.90;;;;;;5067927;28;20048;-61
2021/08/16 01:10:19;;;;;;;24.50;6.22;;;16.90;99.90;;;;;;5052554;28;20595;-60
2021/08/16 01:12:48;;;;;;;19.75;5.70;;;16.90;99.90;;;;;;5069117;28;20105;-60
2021/08/16 01:15:16;;;;;;;23.77;6.72;;;16.90;99.90;;;;;;5050666;28;20048;-60
2021/08/16 01:17:43;;;;;;;22.90;7.78;;;16.80;99.90;;;;;;5067612;28;20052;-60
2021/08/16 01:20:14;;;;;;;25.02;6.25;;;16.80;99.90;;;;;;5070978;28;20052;-61
2021/08/16 01:22:46;;;;;;;20.50;6.72;;;16.90;99.90;;;;;;5069827;28;20417;-61
2021/08/16 01:25:15;;;;;;;24.02;6.78;;;16.90;99.90;;;;;;5069860;28;20057;-60
2021/08/16 01:27:42;;;;;;;26.65;6.82;;;16.90;99.90;;;;;;5066609;28;20036;-60
2021/08/16 01:30:16;;;;;;;20.27;6.22;;;16.90;99.90;;;;;;5070407;28;20489;-61
2021/08/16 01:32:43;;;;;;;21.95;6.28;;;16.90;99.90;;;;;;5066431;28;20041;-61
2021/08/16 01:35:11;;;;;;;23.48;5.93;;;16.90;99.90;;;;;;5068640;28;20076;-61
2021/08/16 01:37:37;;;;;;;23.65;7.13;;;16.90;99.90;;;;;;5067696;28;20045;-61
2021/08/16 01:40:10;;;;;;;19.85;5.82;;;16.90;99.90;;;;;;5071212;28;20052;-60
2021/08/16 01:42:37;;;;;;;18.92;6.25;;;16.90;99.90;;;;;;5054407;28;20053;-60
2021/08/16 01:45:03;;;;;;;23.38;6.35;;;16.90;99.90;;;;;;5067247;28;20387;-61
2021/08/16 01:47:29;;;;;;;23.88;6.50;;;16.90;99.90;;;;;;5068330;28;20579;-60
2021/08/16 01:49:55;;;;;;;26.75;7.72;;;17.00;99.90;;;;;;5071785;28;20121;-61
2021/08/16 01:52:23;;;;;;;21.52;6.13;;;17.00;99.90;;;;;;5067982;28;20378;-61
2021/08/16 01:54:53;;;;;;;24.58;7.07;;;17.00;99.90;;;;;;5067968;28;20508;-61
2021/08/16 01:57:19;;;;;;;24.27;7.10;;;17.00;99.90;;;;;;5047895;28;20110;-60
2021/08/16 01:59:45;;;;;;;20.83;6.70;;;17.00;99.90;;;;;;5063792;28;20064;-60
2021/08/16 02:02:16;;;;;;;20.92;6.40;;;17.00;99.90;;;;;;5068515;28;20078;-60
2021/08/16 02:04:51;;;;;;;23.20;6.97;;;16.90;99.90;;;;;;5068248;28;20103;-61
2021/08/16 02:07:18;;;;;;;23.88;6.90;;;17.00;99.90;;;;;;5035826;28;20063;-61
2021/08/16 02:09:44;;;;;;;25.35;7.13;;;16.90;99.90;;;;;;5068659;28;20048;-60
2021/08/16 02:12:10;;;;;;;27.88;7.32;;;16.90;99.90;;;;;;5072442;28;20044;-60
2021/08/16 02:14:37;;;;;;;26.60;7.72;;;16.90;99.90;;;;;;5046914;28;20057;-61
2021/08/16 02:17:04;;;;;;;32.67;8.13;;;17.00;99.90;;;;;;5068322;28;20068;-60
2021/08/16 02:19:30;;;;;;;26.13;7.95;;;17.00;99.90;;;;;;5068630;28;20082;-61
2021/08/16 02:21:56;;;;;;;21.55;7.13;;;17.00;99.90;;;;;;5047540;28;20044;-60
2021/08/16 02:24:22;;;;;;;23.05;7.57;;;17.00;99.90;;;;;;5067307;28;20060;-61
2021/08/16 02:26:48;;;;;;;21.77;8.10;;;17.00;99.90;;;;;;5072290;28;20040;-62
2021/08/16 02:29:15;;;;;;;27.20;7.55;;;17.00;99.90;;;;;;5068628;28;20552;-60
2021/08/16 02:31:41;;;;;;;28.45;6.97;;;17.00;99.90;;;;;;5066589;28;20040;-60
2021/08/16 02:34:08;;;;;;;24.95;7.68;;;16.90;99.90;;;;;;5047960;28;20455;-61
2021/08/16 02:36:35;;;;;;;21.92;6.53;;;17.00;99.90;;;;;;5066917;28;20527;-60
2021/08/16 02:39:05;;;;;;;27.40;7.40;;;17.00;99.90;;;;;;5066491;28;20481;-61
2021/08/16 02:41:31;;;;;;;27.30;7.70;;;17.00;99.90;;;;;;5067686;28;20061;-61
2021/08/16 02:43:57;;;;;;;24.95;7.70;;;17.00;99.90;;;;;;5063212;28;20758;-61
2021/08/16 02:46:23;;;;;;;28.48;7.53;;;17.00;99.90;;;;;;5067553;28;20492;-61
2021/08/16 02:48:49;;;;;;;23.92;7.55;;;16.90;99.90;;;;;;5067619;28;20382;-61
2021/08/16 02:51:15;;;;;;;26.10;7.90;;;16.90;99.90;;;;;;5065921;28;20044;-61
2021/08/16 02:53:44;;;;;;;32.35;8.05;;;17.00;99.90;;;;;;5048379;28;20059;-61
2021/08/16 02:56:10;;;;;;;31.98;9.18;;;16.90;99.90;;;;;;5063780;28;20130;-61
2021/08/16 02:58:36;;;;;;;30.83;8.63;;;17.00;99.90;;;;;;5066411;28;20102;-61
2021/08/16 03:01:02;;;;;;;26.15;7.90;;;17.00;99.90;;;;;;5069844;28;20090;-61
2021/08/16 03:03:28;;;;;;;24.95;7.70;;;17.00;99.90;;;;;;5060046;28;20049;-61
2021/08/16 03:05:54;;;;;;;21.30;8.00;;;17.00;99.90;;;;;;5067376;28;20568;-61
2021/08/16 03:08:21;;;;;;;29.98;8.77;;;17.00;99.90;;;;;;5065563;28;20159;-61
2021/08/16 03:10:47;;;;;;;26.40;7.47;;;17.00;99.90;;;;;;5067240;28;20052;-61
2021/08/16 03:13:13;;;;;;;32.80;8.75;;;17.00;99.90;;;;;;5072281;28;20037;-61
2021/08/16 03:15:39;;;;;;;24.27;7.95;;;17.00;99.90;;;;;;5066602;28;20057;-62
2021/08/16 03:18:05;;;;;;;22.50;8.27;;;16.90;99.90;;;;;;5063960;28;20054;-61
2021/08/16 03:20:33;;;;;;;30.95;9.90;;;17.00;99.90;;;;;;5067854;28;20131;-61
2021/08/16 03:23:02;;;;;;;21.23;7.95;;;17.00;99.90;;;;;;5067600;28;20052;-61
2021/08/16 03:25:28;;;;;;;29.20;8.65;;;17.00;99.90;;;;;;5069956;28;20037;-61
2021/08/16 03:27:54;;;;;;;24.33;8.70;;;17.00;99.90;;;;;;5074290;28;20052;-61
2021/08/16 03:30:20;;;;;;;29.05;9.05;;;17.00;99.90;;;;;;5066002;28;20503;-61
2021/08/16 03:32:48;;;;;;;25.50;8.65;;;17.00;99.90;;;;;;5066718;28;20422;-61
2021/08/16 03:35:15;;;;;;;24.60;9.20;;;17.00;99.90;;;;;;5048471;28;20053;-61
2021/08/16 03:37:43;;;;;;;35.40;10.35;;;17.00;99.90;;;;;;5073541;28;20047;-61
2021/08/16 03:40:10;;;;;;;27.75;8.60;;;17.00;99.90;;;;;;5065999;28;20045;-61
2021/08/16 03:42:37;;;;;;;27.55;8.23;;;17.00;99.90;;;;;;5067663;28;20166;-60
2021/08/16 03:45:12;;;;;;;30.25;7.90;;;16.90;99.90;;;;;;5064797;28;20446;-61
2021/08/16 03:47:41;;;;;;;28.55;8.30;;;17.00;99.90;;;;;;5067758;28;20045;-61
2021/08/16 03:50:08;;;;;;;27.13;8.65;;;17.00;99.90;;;;;;5063956;28;20132;-61
2021/08/16 03:52:34;;;;;;;28.10;8.68;;;16.90;99.90;;;;;;5067914;28;20492;-61
2021/08/16 03:55:00;;;;;;;23.98;8.25;;;16.90;99.90;;;;;;5065167;28;20493;-60
2021/08/16 03:57:26;;;;;;;23.88;8.02;;;16.90;99.90;;;;;;5058644;28;20074;-61
2021/08/16 03:59:52;;;;;;;22.60;7.88;;;16.90;99.90;;;;;;5067307;28;20061;-61
2021/08/16 04:02:18;;;;;;;26.20;9.05;;;16.90;99.90;;;;;;5066323;28;20102;-61
2021/08/16 04:04:45;;;;;;;32.53;8.52;;;16.80;99.90;;;;;;5067327;28;20040;-61
2021/08/16 04:07:11;;;;;;;26.95;7.95;;;16.80;99.90;;;;;;5066105;28;20151;-61
2021/08/16 04:09:37;;;;;;;25.17;7.47;;;16.80;99.90;;;;;;5047868;28;20139;-61
2021/08/16 04:12:04;;;;;;;29.00;8.05;;;16.80;99.90;;;;;;5067620;28;20182;-61
2021/08/16 04:14:31;;;;;;;30.30;8.55;;;16.80;99.90;;;;;;5068893;28;20500;-61
2021/08/16 04:16:57;;;;;;;31.25;9.10;;;16.80;99.90;;;;;;5076486;28;20045;-61
2021/08/16 04:19:24;;;;;;;23.95;9.45;;;16.80;99.90;;;;;;5069672;28;20048;-61
2021/08/16 04:21:53;;;;;;;26.10;8.48;;;16.80;99.90;;;;;;5068445;28;20048;-61
2021/08/16 04:24:19;;;;;;;24.00;8.05;;;16.80;99.90;;;;;;5068320;28;20063;-61
2021/08/16 04:26:46;;;;;;;26.77;10.70;;;16.80;99.90;;;;;;5070059;28;20059;-61
2021/08/16 04:29:12;;;;;;;23.75;8.93;;;16.80;99.90;;;;;;5073610;28;20045;-61
2021/08/16 04:31:38;;;;;;;31.58;10.13;;;16.80;99.90;;;;;;5070615;28;20469;-61
2021/08/16 04:34:04;;;;;;;25.92;9.98;;;16.80;99.90;;;;;;5067835;28;20135;-61
2021/08/16 04:36:32;;;;;;;22.05;8.73;;;16.90;99.90;;;;;;5070403;28;20049;-61
2021/08/16 04:39:01;;;;;;;23.83;9.48;;;16.90;99.90;;;;;;5069994;28;20075;-62
2021/08/16 04:41:27;;;;;;;28.40;9.57;;;16.90;99.90;;;;;;5075731;28;20068;-61
2021/08/16 04:43:53;;;;;;;26.33;9.77;;;16.90;99.90;;;;;;5051178;28;20127;-61
2021/08/16 04:46:19;;;;;;;31.25;10.13;;;16.90;99.90;;;;;;5070779;28;20186;-60
2021/08/16 04:48:46;;;;;;;27.92;8.95;;;16.80;99.90;;;;;;5070814;28;20501;-62
2021/08/16 04:51:12;;;;;;;31.15;8.55;;;16.80;99.90;;;;;;5074149;28;20443;-62
2021/08/16 04:53:38;;;;;;;33.17;8.52;;;16.70;99.90;;;;;;5069945;28;20721;-62
2021/08/16 04:56:07;;;;;;;25.63;8.55;;;16.70;99.90;;;;;;5069436;28;20056;-62
2021/08/16 04:58:35;;;;;;;29.70;9.10;;;16.80;99.90;;;;;;5069831;28;20088;-61
2021/08/16 05:01:01;;;;;;;26.27;8.05;;;16.70;99.90;;;;;;5065034;28;20073;-61
2021/08/16 05:03:31;;;;;;;26.67;8.60;;;16.70;99.90;;;;;;5069992;28;20056;-62
2021/08/16 05:06:05;;;;;;;23.80;8.88;;;16.80;99.90;;;;;;5069447;28;20512;-62
2021/08/16 05:08:32;;;;;;;25.55;7.88;;;16.80;99.90;;;;;;5053790;28;20520;-62
2021/08/16 05:10:58;;;;;;;27.50;8.52;;;16.80;99.90;;;;;;5060721;28;20037;-62
2021/08/16 05:13:24;;;;;;;24.85;8.30;;;16.80;99.90;;;;;;5065555;28;20378;-62
2021/08/16 05:15:50;;;;;;;22.30;8.00;;;17.00;99.90;;;;;;5074916;28;20048;-61
2021/08/16 05:18:16;;;;;;;20.40;7.05;;;17.10;99.90;;;;;;5067971;28;20040;-61
2021/08/16 05:20:42;;;;;;;22.55;6.70;;;17.10;99.90;;;;;;5067589;28;20048;-61
2021/08/16 05:23:09;;;;;;;24.33;7.57;;;17.10;99.90;;;;;;5032046;28;20057;-61
2021/08/16 05:25:36;;;;;;;20.45;7.10;;;17.10;99.90;;;;;;5067526;28;20075;-62
2021/08/16 05:28:05;;;;;;;17.67;6.65;;;17.20;99.90;;;;;;5051759;28;20044;-62
2021/08/16 05:30:46;;;;;;;22.27;7.80;;;17.20;99.90;;;;;;5060313;28;20060;-63
2021/08/16 05:33:15;;;;;;;26.77;13.43;;;17.20;99.90;;;;;;5062590;28;20041;-63
2021/08/16 05:35:41;;;;;;;31.63;13.30;;;17.20;99.90;;;;;;5063375;28;20102;-62
2021/08/16 05:38:08;;;;;;;31.52;15.80;;;17.30;99.90;;;;;;5052095;28;20069;-63
2021/08/16 05:40:35;;;;;;;26.75;11.43;;;17.30;99.90;;;;;;5069546;28;20472;-61
2021/08/16 05:43:01;;;;;;;22.45;7.60;;;17.30;99.90;;;;;;5076197;28;20119;-62
2021/08/16 05:45:29;;;;;;;22.63;8.77;;;17.30;99.90;;;;;;5064094;28;20066;-62
2021/08/16 05:47:58;;;;;;;16.95;7.90;;;17.30;99.90;;;;;;5070082;28;20064;-61
2021/08/16 05:50:27;;;;;;;42.53;28.83;;;17.40;99.90;;;;;;5072161;28;20829;-61
2021/08/16 05:52:56;;;;;;;32.60;16.88;;;17.40;99.90;;;;;;5068220;28;20044;-62
2021/08/16 05:55:25;;;;;;;25.38;11.75;;;17.30;99.90;;;;;;5060587;28;20152;-60
2021/08/16 05:57:51;;;;;;;24.50;8.40;;;17.30;99.90;;;;;;5064299;28;20119;-60
2021/08/16 06:00:19;;;;;;;28.15;15.00;;;17.30;99.90;;;;;;5069555;28;20077;-59
2021/08/16 06:02:45;;;;;;;23.88;7.65;;;17.30;99.90;;;;;;5069372;28;20101;-59
2021/08/16 06:05:15;;;;;;;19.77;9.85;;;17.10;99.90;;;;;;5069585;28;20052;-61
2021/08/16 06:07:41;;;;;;;22.42;8.27;;;17.00;99.90;;;;;;5068738;28;20048;-59
2021/08/16 06:10:09;;;;;;;22.88;7.50;;;17.00;99.90;;;;;;5072702;28;20086;-62
2021/08/16 06:12:37;;;;;;;17.77;7.65;;;16.90;99.90;;;;;;5062893;28;20036;-61
2021/08/16 06:15:08;;;;;;;23.92;8.13;;;16.80;99.90;;;;;;5069217;28;20051;-61
2021/08/16 06:17:38;;;;;;;16.35;7.32;;;16.80;99.90;;;;;;5068379;28;20048;-63
2021/08/16 06:20:07;;;;;;;22.10;14.40;;;16.90;99.90;;;;;;5066624;28;20519;-61
2021/08/16 06:22:34;;;;;;;39.75;32.88;;;16.90;99.90;;;;;;5071179;28;20037;-63
2021/08/16 06:25:05;;;;;;;49.28;40.92;;;16.90;99.90;;;;;;5054387;28;20052;-64
2021/08/16 06:27:33;;;;;;;17.63;10.52;;;16.90;99.90;;;;;;5067605;28;20181;-65
2021/08/16 06:30:05;;;;;;;;;;;16.90;99.90;;;;;;5068150;28;20397;-66
2021/08/16 06:32:33;;;;;;;20.33;9.85;;;17.00;99.90;;;;;;5072830;28;19932;-65
2021/08/16 06:35:03;;;;;;;14.55;7.95;;;17.00;99.90;;;;;;5072860;28;20824;-64
2021/08/16 06:37:32;;;;;;;12.93;8.30;;;17.00;99.90;;;;;;5050705;28;20121;-65
2021/08/16 06:40:06;;;;;;;13.68;8.82;;;17.10;99.90;;;;;;5067224;28;20175;-64
2021/08/16 06:42:34;;;;;;;15.02;8.13;;;17.10;99.90;;;;;;5067708;28;20527;-64
2021/08/16 06:45:00;;;;;;;15.18;8.55;;;17.20;99.90;;;;;;5061826;28;20075;-68
2021/08/16 06:47:27;;;;;;;21.75;16.67;;;17.20;99.90;;;;;;5036902;28;20474;-63
2021/08/16 06:49:56;;;;;;;20.00;14.30;;;17.20;99.90;;;;;;5059478;28;20456;-64
2021/08/16 06:52:24;;;;;;;13.75;10.00;;;17.30;99.90;;;;;;5060925;28;20501;-63
2021/08/16 06:54:51;;;;;;;16.42;9.13;;;17.30;99.90;;;;;;5067869;28;20107;-65
2021/08/16 06:57:20;;;;;;;14.90;9.30;;;17.30;99.90;;;;;;5050073;28;20052;-66
2021/08/16 06:59:46;;;;;;;10.25;6.85;;;17.30;99.90;;;;;;5066415;28;20451;-65
2021/08/16 07:02:13;;;;;;;15.15;8.00;;;17.30;99.90;;;;;;5071967;28;20127;-64
2021/08/16 07:04:42;;;;;;;12.43;8.32;;;17.40;99.90;;;;;;5068405;28;20052;-61
2021/08/16 07:07:10;;;;;;;11.02;6.40;;;17.50;99.90;;;;;;5041620;28;20098;-65
2021/08/16 07:09:37;;;;;;;12.23;6.65;;;17.60;99.90;;;;;;5070096;28;20111;-65
2021/08/16 07:12:03;;;;;;;12.60;5.10;;;17.60;99.90;;;;;;5068002;28;20044;-63
2021/08/16 07:14:30;;;;;;;27.08;21.88;;;17.70;99.90;;;;;;5067688;28;20049;-64
2021/08/16 07:16:59;;;;;;;23.27;17.73;;;17.80;99.90;;;;;;5068592;28;20052;-63
2021/08/16 07:19:30;;;;;;;9.02;6.45;;;18.00;99.90;;;;;;5064002;28;20067;-63
2021/08/16 07:21:59;;;;;;;;;;;18.70;99.90;;;;;;5059792;28;20063;-64
2021/08/16 07:24:31;;;;;;;26.83;21.35;;;19.00;99.90;;;;;;5072779;28;20054;-64
2021/08/16 07:26:57;;;;;;;11.13;6.93;;;19.50;99.90;;;;;;5067608;28;20045;-64
2021/08/16 07:29:30;;;;;;;6.72;2.97;;;19.30;99.90;;;;;;5068401;28;20400;-63
2021/08/16 07:32:01;;;;;;;7.43;2.80;;;18.90;99.90;;;;;;5068308;28;20040;-64
2021/08/16 07:34:30;;;;;;;11.27;6.20;;;18.80;99.90;;;;;;5069985;28;20115;-63
2021/08/16 07:37:03;;;;;;;8.70;3.00;;;18.80;99.90;;;;;;5066973;28;20449;-67
2021/08/16 07:39:30;;;;;;;8.50;4.70;;;18.50;99.90;;;;;;5073830;28;20040;-65
2021/08/16 07:41:56;;;;;;;5.85;3.67;;;18.40;99.90;;;;;;5068015;28;20485;-64
2021/08/16 07:44:26;;;;;;;6.63;2.90;;;18.40;99.90;;;;;;5070066;28;20049;-63
2021/08/16 07:46:56;;;;;;;9.85;5.22;;;18.40;99.90;;;;;;5071423;28;20056;-63
2021/08/16 07:49:25;;;;;;;6.22;2.97;;;18.20;99.90;;;;;;5071673;28;20130;-62
2021/08/16 07:51:57;;;;;;;8.05;5.03;;;17.80;99.90;;;;;;5076876;28;20139;-62
2021/08/16 07:54:23;;;;;;;5.70;3.15;;;17.60;99.90;;;;;;5049739;28;20049;-61
2021/08/16 07:56:50;;;;;;;6.45;2.63;;;17.50;99.90;;;;;;5071319;28;20066;-63
2021/08/16 07:59:20;;;;;;;5.30;2.67;;;17.60;99.90;;;;;;5070735;28;20084;-63
2021/08/16 08:01:49;;;;;;;6.30;2.05;;;17.70;99.90;;;;;;5062520;28;20052;-65
2021/08/16 08:04:15;;;;;;;11.13;6.43;;;17.80;99.90;;;;;;5072310;28;20090;-65
2021/08/16 08:06:47;;;;;;;23.15;16.83;;;17.90;99.90;;;;;;5071075;28;20051;-65
2021/08/16 08:09:16;;;;;;;9.80;6.57;;;18.10;99.90;;;;;;5077774;28;20082;-64
2021/08/16 08:11:45;;;;;;;9.35;4.07;;;18.30;99.90;;;;;;5052215;28;20044;-64
2021/08/16 08:14:13;;;;;;;5.93;2.20;;;18.50;99.90;;;;;;5072730;28;20043;-63
2021/08/16 08:16:42;;;;;;;5.47;2.33;;;18.70;99.90;;;;;;5070398;28;20045;-65
2021/08/16 08:19:11;;;;;;;9.48;4.72;;;18.80;99.90;;;;;;5068099;28;20068;-65
2021/08/16 08:21:40;;;;;;;5.40;2.10;;;18.80;99.90;;;;;;5069488;28;20045;-65
2021/08/16 08:24:09;;;;;;;6.20;2.00;;;18.70;99.90;;;;;;5071470;28;20044;-66
2021/08/16 08:26:37;;;;;;;4.60;1.67;;;18.70;99.90;;;;;;5039827;28;20052;-64
2021/08/16 08:29:06;;;;;;;6.47;2.60;;;18.50;99.90;;;;;;5069743;28;20048;-64
2021/08/16 08:31:38;;;;;;;5.97;2.17;;;18.30;99.90;;;;;;5071097;28;20048;-64
2021/08/16 08:34:06;;;;;;;;;;;18.10;99.90;;;;;;5071077;28;20442;-65
2021/08/16 08:36:32;;;;;;;6.13;2.53;;;17.90;99.90;;;;;;5070819;28;19994;-65
2021/08/16 08:38:58;;;;;;;5.72;2.33;;;17.90;99.90;;;;;;5054404;28;20126;-64
2021/08/16 08:41:34;;;;;;;6.65;2.30;;;17.90;99.90;;;;;;5068440;28;20048;-64
2021/08/16 08:44:05;;;;;;;4.65;2.17;;;17.80;99.90;;;;;;5065468;28;20036;-64
2021/08/16 08:46:34;;;;;;;;;;;17.80;99.90;;;;;;5076451;28;20193;-65
2021/08/16 08:49:03;;;;;;;10.48;4.88;;;17.70;99.90;;;;;;5070237;28;20373;-65
2021/08/16 08:51:34;;;;;;;23.15;16.63;;;17.60;99.90;;;;;;5070784;28;20036;-64
2021/08/16 08:54:04;;;;;;;5.65;3.28;;;17.70;99.90;;;;;;5070113;28;20040;-65
2021/08/16 08:56:33;;;;;;;7.55;4.55;;;17.60;99.90;;;;;;5074841;28;20083;-64
2021/08/16 08:59:02;;;;;;;6.25;2.65;;;17.70;99.90;;;;;;5051880;28;21422;-63
2021/08/16 09:01:31;;;;;;;9.05;3.08;;;17.70;99.90;;;;;;5055502;28;20114;-64
2021/08/16 09:04:00;;;;;;;8.45;2.42;;;17.90;99.90;;;;;;5037059;28;20056;-64
2021/08/16 09:06:33;;;;;;;7.00;2.97;;;18.10;99.90;;;;;;5069637;28;20048;-63
2021/08/16 09:09:02;;;;;;;7.68;2.88;;;18.10;99.90;;;;;;5046792;28;20173;-64
2021/08/16 09:11:29;;;;;;;6.57;2.75;;;18.20;99.90;;;;;;5074931;28;20086;-64
2021/08/16 09:14:05;;;;;;;7.10;2.85;;;18.30;99.90;;;;;;5069949;28;20052;-65
2021/08/16 09:16:34;;;;;;;11.50;4.40;;;18.70;99.90;;;;;;5070200;28;20052;-64
2021/08/16 09:19:21;;;;;;;15.35;7.88;;;19.10;99.90;;;;;;5070125;28;20051;-55
2021/08/16 09:22:02;;;;;;;22.55;14.82;;;19.00;99.90;;;;;;5069857;28;20044;-56
2021/08/16 09:24:35;;;;;;;7.55;2.60;;;19.30;99.90;;;;;;5069998;28;20052;-55
2021/08/16 09:27:10;;;;;;;6.25;2.97;;;19.10;99.90;;;;;;5062713;28;20049;-56
2021/08/16 09:29:50;;;;;;;8.02;2.80;;;19.30;99.90;;;;;;5071009;28;20420;-57
2021/08/16 09:32:30;;;;;;;7.25;2.20;;;19.70;99.90;;;;;;5057856;28;20558;-57
2021/08/16 09:35:19;;;;;;;6.60;2.80;;;19.60;99.90;;;;;;5050372;28;20052;-58
2021/08/16 09:37:54;;;;;;;11.30;3.00;;;19.70;99.90;;;;;;5050639;28;20041;-54
2021/08/16 09:40:24;;;;;;;14.45;5.85;;;19.70;99.90;;;;;;5061753;28;20832;-56
2021/08/16 09:42:57;;;;;;;7.00;2.85;;;19.40;99.90;;;;;;5060496;28;20048;-58
2021/08/16 09:45:38;;;;;;;8.40;3.10;;;19.00;99.90;;;;;;5054507;28;20041;-57
2021/08/16 09:48:07;;;;;;;8.02;3.95;;;18.90;99.90;;;;;;5061415;28;20124;-58
2021/08/16 09:50:38;;;;;;;9.15;2.88;;;18.80;99.90;;;;;;5065039;28;20901;-61
2021/08/16 09:53:10;;;;;;;7.90;2.97;;;18.80;99.90;;;;;;5061797;28;20067;-59
2021/08/16 09:55:42;;;;;;;6.50;2.90;;;18.70;99.90;;;;;;5049699;28;20052;-59
2021/08/16 09:58:14;;;;;;;9.10;5.13;;;18.90;99.90;;;;;;5051576;28;20058;-65
2021/08/16 10:00:58;;;;;;;16.92;12.30;;;18.70;99.90;;;;;;5069032;28;20048;-61
2021/08/16 10:03:26;;;;;;;19.48;11.95;;;18.50;99.90;;;;;;5067606;28;20048;-59
2021/08/16 10:05:55;;;;;;;10.15;4.80;;;18.30;99.90;;;;;;5047181;28;20047;-56
2021/08/16 10:08:23;;;;;;;8.63;3.53;;;17.40;99.90;;;;;;5050768;28;20061;-56
2021/08/16 10:10:59;;;;;;;10.82;4.30;;;17.30;99.90;;;;;;5070598;28;20037;-59
2021/08/16 10:13:27;;;;;;;6.43;2.33;;;17.50;99.90;;;;;;5069349;28;20048;-61
2021/08/16 10:16:02;;;;;;;5.43;2.55;;;17.40;99.90;;;;;;5073550;28;20101;-61
2021/08/16 10:18:38;;;;;;;7.80;2.78;;;17.20;99.90;;;;;;5068824;28;20067;-63
2021/08/16 10:21:13;;;;;;;11.38;3.20;;;17.50;99.90;;;;;;5069059;28;20056;-62
2021/08/16 10:23:47;;;;;;;6.82;2.70;;;17.70;99.90;;;;;;5065433;28;20070;-65
2021/08/16 10:26:26;;;;;;;7.40;2.65;;;17.80;99.90;;;;;;5066802;28;20044;-62
2021/08/16 10:29:10;;;;;;;7.20;3.22;;;17.80;99.90;;;;;;5059382;28;20057;-61
2021/08/16 10:31:38;;;;;;;7.07;3.03;;;17.80;99.90;;;;;;5068298;28;20064;-68
2021/08/16 10:34:05;;;;;;;10.73;4.80;;;17.60;99.90;;;;;;5068706;28;20036;-68
2021/08/16 10:36:33;;;;;;;8.38;3.13;;;17.80;99.90;;;;;;5067838;28;20044;-67
2021/08/16 10:39:04;;;;;;;7.47;2.88;;;17.90;99.90;;;;;;5075190;28;20048;-65
2021/08/16 10:41:38;;;;;;;7.55;1.98;;;17.90;99.90;;;;;;5068192;28;20044;-65
2021/08/16 10:44:16;;;;;;;7.20;2.47;;;18.10;99.90;;;;;;5067869;28;20048;-68
2021/08/16 10:47:07;;;;;;;7.97;2.38;;;18.10;99.90;;;;;;5069015;28;20074;-64
2021/08/16 10:49:40;;;;;;;5.22;2.15;;;18.20;99.90;;;;;;5047282;28;20049;-67
2021/08/16 10:52:30;;;;;;;9.80;2.20;;;18.30;99.90;;;;;;5061408;28;20059;-68
2021/08/16 10:55:07;;;;;;;5.32;1.80;;;18.20;99.90;;;;;;5074790;28;20055;-64
2021/08/16 10:57:35;;;;;;;21.95;12.98;;;18.10;99.90;;;;;;5064849;28;20056;-59
2021/08/16 11:00:01;;;;;;;6.82;2.75;;;17.60;99.90;;;;;;5058315;28;20147;-62
2021/08/16 11:02:33;;;;;;;11.85;4.93;;;16.80;99.90;;;;;;5068468;28;20049;-61
2021/08/16 11:05:02;;;;;;;11.68;3.60;;;16.70;99.90;;;;;;5072882;28;20102;-61
2021/08/16 11:07:31;;;;;;;8.98;3.05;;;16.30;99.90;;;;;;5074679;28;20139;-59
2021/08/16 11:10:01;;;;;;;8.32;2.83;;;16.10;99.90;;;;;;5069338;28;20135;-59
2021/08/16 11:12:33;;;;;;;11.25;3.70;;;16.20;99.90;;;;;;5068441;28;20063;-59
2021/08/16 11:15:00;;;;;;;;;;;16.20;99.90;;;;;;5067596;28;20049;-58
2021/08/16 11:17:30;;;;;;;8.85;2.95;;;16.30;99.90;;;;;;5068418;28;19970;-59
2021/08/16 11:20:05;;;;;;;8.90;3.10;;;16.40;99.90;;;;;;5063087;28;20134;-58
2021/08/16 11:22:34;;;;;;;18.40;13.32;;;16.50;99.90;;;;;;5062133;28;20045;-58
2021/08/16 11:25:07;;;;;;;13.00;4.28;;;16.50;99.90;;;;;;5069267;28;20052;-58
2021/08/16 11:27:41;;;;;;;17.55;7.65;;;16.60;99.90;;;;;;5061368;28;20409;-58
2021/08/16 11:30:08;;;;;;;12.98;5.60;;;16.70;99.90;;;;;;5058713;28;20567;-58
2021/08/16 11:32:39;;;;;;;11.35;5.47;;;16.80;99.90;;;;;;5064360;28;20052;-55
2021/08/16 11:35:09;;;;;;;10.27;3.70;;;17.00;99.90;;;;;;5071879;28;20044;-57
2021/08/16 11:37:43;;;;;;;8.77;3.55;;;17.20;99.90;;;;;;5049848;28;20781;-57
2021/08/16 11:40:12;;;;;;;10.43;3.40;;;17.40;99.90;;;;;;5044549;28;20063;-57
2021/08/16 11:42:41;;;;;;;8.55;3.30;;;17.60;99.90;;;;;;5065585;28;20458;-57
2021/08/16 11:45:12;;;;;;;9.48;3.47;;;17.80;99.90;;;;;;5070450;28;20044;-58
2021/08/16 11:47:45;;;;;;;10.68;3.97;;;18.00;99.90;;;;;;5066420;28;20052;-59
2021/08/16 11:50:14;;;;;;;9.88;3.90;;;18.10;99.90;;;;;;5072584;28;20044;-58
2021/08/16 11:52:41;;;;;;;15.07;4.20;;;18.30;99.90;;;;;;5073770;28;20036;-58
2021/08/16 11:55:09;;;;;;;13.48;3.55;;;18.50;99.90;;;;;;5067642;28;20169;-57
2021/08/16 11:57:56;;;;;;;11.85;3.33;;;18.50;99.90;;;;;;5052131;28;20688;-58
2021/08/16 12:00:27;;;;;;;9.07;3.28;;;18.70;99.90;;;;;;5070310;28;20049;-58
2021/08/16 12:02:56;;;;;;;8.82;2.97;;;18.70;99.90;;;;;;5068947;28;20098;-58
2021/08/16 12:05:25;;;;;;;10.88;3.17;;;18.80;99.90;;;;;;5072991;28;20041;-58
2021/08/16 12:07:53;;;;;;;9.10;3.05;;;18.70;99.90;;;;;;5060015;28;20041;-58
2021/08/16 12:10:24;;;;;;;13.73;3.00;;;18.60;99.90;;;;;;5057515;28;20048;-58
2021/08/16 12:13:02;;;;;;;10.30;2.83;;;18.20;99.90;;;;;;5068686;28;20044;-58
2021/08/16 12:15:46;;;;;;;10.65;2.78;;;18.10;99.90;;;;;;5045015;28;20083;-55
2021/08/16 12:18:34;;;;;;;8.57;3.17;;;18.20;99.90;;;;;;5054058;28;20071;-50
2021/08/16 12:21:02;;;;;;;9.68;3.58;;;17.70;99.90;;;;;;5060375;28;20059;-48
2021/08/16 12:23:34;;;;;;;8.60;2.63;;;17.80;99.90;;;;;;5072815;28;20040;-53
2021/08/16 12:26:06;;;;;;;12.20;3.17;;;17.60;99.90;;;;;;5054751;28;20809;-50
2021/08/16 12:28:46;;;;;;;12.55;3.47;;;17.90;99.90;;;;;;5050382;28;20049;-52
2021/08/16 12:31:13;;;;;;;19.98;12.30;;;18.20;99.90;;;;;;5060515;28;20047;-48
2021/08/16 12:33:50;;;;;;;10.55;3.53;;;18.70;99.90;;;;;;5060291;28;20497;-49
2021/08/16 12:36:22;;;;;;;14.13;4.85;;;19.00;99.90;;;;;;5059440;28;20068;-49
2021/08/16 12:38:57;;;;;;;11.00;2.90;;;19.30;99.90;;;;;;5074715;28;20067;-49
2021/08/16 12:41:25;;;;;;;12.05;3.42;;;19.30;99.90;;;;;;5064021;28;20489;-49
2021/08/16 12:43:52;;;;;;;10.82;3.80;;;19.40;99.90;;;;;;5070994;28;20083;-50
2021/08/16 12:46:31;;;;;;;10.82;4.22;;;19.60;99.40;;;;;;5072404;28;20089;-51
2021/08/16 12:48:58;;;;;;;13.82;5.43;;;20.50;95.40;;;;;;5059919;28;20048;-48
2021/08/16 12:51:31;;;;;;;12.45;4.60;;;20.90;91.00;;;;;;5070433;28;20054;-50